REU weather

Reus Air Base
Reus, Catalonia, Spain

Public forecast

Using degrees Celsius for public forecast. Weather courtesy of forecast.io.

METAR (pilot weather report)

Retrieved 2019/05/27 06:30 UTC (7 minutes ago):

LERS 270630Z 13003KT 050V170 9999 FEW030 17/10 Q1012

TAF (pilot weather forecast)

Retrieved 2019/05/27 03:27 UTC (3 hours ago):

TAF LERS 270200Z 2703/2803 28009KT CAVOK TX26/2712Z TN13/2706Z BECMG 2714/2716 20010KT BECMG 2720/2722 VRB04KT